sensor_id;sensor_type;location;lat;lon;timestamp;P1;durP1;ratioP1;P2;durP2;ratioP2
60993;SDS011;47611;54.932;73.338;2022-10-14T00:01:14;3.90;;;2.00;;
60993;SDS011;47611;54.932;73.338;2022-10-14T00:03:52;3.45;;;1.83;;
60993;SDS011;47611;54.932;73.338;2022-10-14T00:06:20;3.38;;;1.95;;
60993;SDS011;47611;54.932;73.338;2022-10-14T00:08:47;3.30;;;2.15;;
60993;SDS011;47611;54.932;73.338;2022-10-14T00:11:18;4.97;;;2.50;;
60993;SDS011;47611;54.932;73.338;2022-10-14T00:13:46;3.05;;;2.03;;
60993;SDS011;47611;54.932;73.338;2022-10-14T00:16:20;4.70;;;2.10;;
60993;SDS011;47611;54.932;73.338;2022-10-14T00:18:47;5.10;;;2.40;;
60993;SDS011;47611;54.932;73.338;2022-10-14T00:21:14;5.05;;;2.53;;
60993;SDS011;47611;54.932;73.338;2022-10-14T00:23:46;6.78;;;2.50;;
60993;SDS011;47611;54.932;73.338;2022-10-14T00:26:19;5.28;;;2.38;;
60993;SDS011;47611;54.932;73.338;2022-10-14T00:28:53;7.75;;;3.45;;
60993;SDS011;47611;54.932;73.338;2022-10-14T00:31:21;9.35;;;3.83;;
60993;SDS011;47611;54.932;73.338;2022-10-14T00:33:48;8.65;;;3.28;;
60993;SDS011;47611;54.932;73.338;2022-10-14T00:36:15;8.68;;;3.65;;
60993;SDS011;47611;54.932;73.338;2022-10-14T00:38:44;6.85;;;3.20;;
60993;SDS011;47611;54.932;73.338;2022-10-14T00:41:13;5.75;;;3.20;;
60993;SDS011;47611;54.932;73.338;2022-10-14T00:46:26;6.47;;;3.58;;
60993;SDS011;47611;54.932;73.338;2022-10-14T00:49:22;7.28;;;3.40;;
60993;SDS011;47611;54.932;73.338;2022-10-14T00:54:31;10.32;;;4.00;;
60993;SDS011;47611;54.932;73.338;2022-10-14T00:57:19;9.68;;;3.05;;
60993;SDS011;47611;54.932;73.338;2022-10-14T00:59:46;6.47;;;3.00;;
60993;SDS011;47611;54.932;73.338;2022-10-14T01:02:22;6.40;;;2.88;;
60993;SDS011;47611;54.932;73.338;2022-10-14T01:04:59;9.25;;;3.58;;
60993;SDS011;47611;54.932;73.338;2022-10-14T01:12:44;6.13;;;3.22;;
60993;SDS011;47611;54.932;73.338;2022-10-14T01:23:45;11.60;;;3.70;;
60993;SDS011;47611;54.932;73.338;2022-10-14T01:26:39;7.05;;;3.55;;
60993;SDS011;47611;54.932;73.338;2022-10-14T01:32:30;12.60;;;3.58;;
60993;SDS011;47611;54.932;73.338;2022-10-14T01:35:05;7.80;;;4.03;;
60993;SDS011;47611;54.932;73.338;2022-10-14T01:37:52;8.13;;;3.90;;
60993;SDS011;47611;54.932;73.338;2022-10-14T01:40:32;8.95;;;4.28;;
60993;SDS011;47611;54.932;73.338;2022-10-14T01:43:13;15.10;;;5.00;;
60993;SDS011;47611;54.932;73.338;2022-10-14T01:45:47;7.15;;;4.18;;
60993;SDS011;47611;54.932;73.338;2022-10-14T01:48:26;7.68;;;4.15;;
60993;SDS011;47611;54.932;73.338;2022-10-14T01:50:57;14.57;;;4.15;;
60993;SDS011;47611;54.932;73.338;2022-10-14T01:53:31;10.13;;;3.78;;
60993;SDS011;47611;54.932;73.338;2022-10-14T01:56:04;12.50;;;4.07;;
60993;SDS011;47611;54.932;73.338;2022-10-14T01:58:41;8.80;;;3.83;;
60993;SDS011;47611;54.932;73.338;2022-10-14T02:01:09;8.13;;;3.75;;
60993;SDS011;47611;54.932;73.338;2022-10-14T02:03:40;8.85;;;3.75;;
60993;SDS011;47611;54.932;73.338;2022-10-14T02:06:14;9.33;;;4.07;;
60993;SDS011;47611;54.932;73.338;2022-10-14T02:11:29;17.70;;;9.48;;
60993;SDS011;47611;54.932;73.338;2022-10-14T02:16:37;17.98;;;6.63;;
60993;SDS011;47611;54.932;73.338;2022-10-14T02:19:16;14.55;;;4.78;;
60993;SDS011;47611;54.932;73.338;2022-10-14T02:22:00;9.90;;;4.28;;
60993;SDS011;47611;54.932;73.338;2022-10-14T02:24:37;15.57;;;7.60;;
60993;SDS011;47611;54.932;73.338;2022-10-14T02:27:11;16.42;;;5.57;;
60993;SDS011;47611;54.932;73.338;2022-10-14T02:29:41;11.15;;;4.50;;
60993;SDS011;47611;54.932;73.338;2022-10-14T02:32:20;17.23;;;5.80;;
60993;SDS011;47611;54.932;73.338;2022-10-14T02:34:49;14.23;;;4.90;;
60993;SDS011;47611;54.932;73.338;2022-10-14T02:37:29;14.05;;;5.32;;
60993;SDS011;47611;54.932;73.338;2022-10-14T02:40:06;10.73;;;5.25;;
60993;SDS011;47611;54.932;73.338;2022-10-14T02:42:41;16.52;;;4.90;;
60993;SDS011;47611;54.932;73.338;2022-10-14T02:45:08;17.83;;;5.32;;
60993;SDS011;47611;54.932;73.338;2022-10-14T02:47:37;10.40;;;4.88;;
60993;SDS011;47611;54.932;73.338;2022-10-14T02:50:04;12.15;;;5.13;;
60993;SDS011;47611;54.932;73.338;2022-10-14T02:52:31;27.17;;;11.23;;
60993;SDS011;47611;54.932;73.338;2022-10-14T02:54:57;16.65;;;5.85;;
60993;SDS011;47611;54.932;73.338;2022-10-14T02:57:25;13.57;;;5.70;;
60993;SDS011;47611;54.932;73.338;2022-10-14T02:59:55;13.70;;;5.15;;
60993;SDS011;47611;54.932;73.338;2022-10-14T03:02:23;13.68;;;5.70;;
60993;SDS011;47611;54.932;73.338;2022-10-14T03:04:49;12.93;;;5.47;;
60993;SDS011;47611;54.932;73.338;2022-10-14T03:07:16;27.23;;;7.47;;
60993;SDS011;47611;54.932;73.338;2022-10-14T03:09:46;15.85;;;5.68;;
60993;SDS011;47611;54.932;73.338;2022-10-14T03:12:12;24.42;;;10.77;;
60993;SDS011;47611;54.932;73.338;2022-10-14T03:14:50;14.57;;;5.30;;
60993;SDS011;47611;54.932;73.338;2022-10-14T03:17:17;11.82;;;4.88;;
60993;SDS011;47611;54.932;73.338;2022-10-14T03:19:44;15.48;;;4.85;;
60993;SDS011;47611;54.932;73.338;2022-10-14T03:22:14;13.40;;;6.78;;
60993;SDS011;47611;54.932;73.338;2022-10-14T03:24:40;26.50;;;6.97;;
60993;SDS011;47611;54.932;73.338;2022-10-14T03:27:44;10.93;;;5.28;;
60993;SDS011;47611;54.932;73.338;2022-10-14T03:30:23;18.85;;;5.60;;
60993;SDS011;47611;54.932;73.338;2022-10-14T03:32:57;14.43;;;3.90;;
60993;SDS011;47611;54.932;73.338;2022-10-14T03:35:42;14.65;;;4.97;;
60993;SDS011;47611;54.932;73.338;2022-10-14T03:38:11;24.05;;;9.60;;
60993;SDS011;47611;54.932;73.338;2022-10-14T03:40:39;16.15;;;7.88;;
60993;SDS011;47611;54.932;73.338;2022-10-14T03:43:09;9.80;;;4.85;;
60993;SDS011;47611;54.932;73.338;2022-10-14T03:45:44;17.05;;;5.97;;
60993;SDS011;47611;54.932;73.338;2022-10-14T03:48:13;59.63;;;19.23;;
60993;SDS011;47611;54.932;73.338;2022-10-14T03:50:39;29.13;;;11.25;;
60993;SDS011;47611;54.932;73.338;2022-10-14T03:53:07;15.32;;;7.93;;
60993;SDS011;47611;54.932;73.338;2022-10-14T03:55:35;12.90;;;6.57;;
60993;SDS011;47611;54.932;73.338;2022-10-14T03:58:03;19.13;;;7.32;;
60993;SDS011;47611;54.932;73.338;2022-10-14T04:00:31;11.95;;;5.00;;
60993;SDS011;47611;54.932;73.338;2022-10-14T04:03:46;33.70;;;14.43;;
60993;SDS011;47611;54.932;73.338;2022-10-14T04:06:17;18.95;;;6.43;;
60993;SDS011;47611;54.932;73.338;2022-10-14T04:08:44;11.27;;;5.43;;
60993;SDS011;47611;54.932;73.338;2022-10-14T04:11:19;16.70;;;6.43;;
60993;SDS011;47611;54.932;73.338;2022-10-14T04:13:56;19.80;;;7.35;;
60993;SDS011;47611;54.932;73.338;2022-10-14T04:16:23;15.07;;;6.43;;
60993;SDS011;47611;54.932;73.338;2022-10-14T04:19:00;13.82;;;5.55;;
60993;SDS011;47611;54.932;73.338;2022-10-14T04:21:26;25.73;;;10.82;;
60993;SDS011;47611;54.932;73.338;2022-10-14T04:23:54;10.75;;;4.68;;
60993;SDS011;47611;54.932;73.338;2022-10-14T04:26:32;7.53;;;3.70;;
60993;SDS011;47611;54.932;73.338;2022-10-14T04:28:59;12.45;;;4.22;;
60993;SDS011;47611;54.932;73.338;2022-10-14T04:31:39;18.05;;;4.95;;
60993;SDS011;47611;54.932;73.338;2022-10-14T04:34:06;13.55;;;4.15;;
60993;SDS011;47611;54.932;73.338;2022-10-14T04:36:36;8.52;;;3.72;;
60993;SDS011;47611;54.932;73.338;2022-10-14T04:39:17;12.55;;;4.82;;
60993;SDS011;47611;54.932;73.338;2022-10-14T04:41:44;10.02;;;5.25;;
60993;SDS011;47611;54.932;73.338;2022-10-14T04:44:14;11.85;;;3.78;;
60993;SDS011;47611;54.932;73.338;2022-10-14T04:49:13;6.53;;;3.20;;
60993;SDS011;47611;54.932;73.338;2022-10-14T04:51:48;10.98;;;3.58;;
60993;SDS011;47611;54.932;73.338;2022-10-14T04:54:30;12.25;;;3.58;;
60993;SDS011;47611;54.932;73.338;2022-10-14T04:56:58;10.88;;;2.65;;
60993;SDS011;47611;54.932;73.338;2022-10-14T04:59:25;17.27;;;4.53;;
60993;SDS011;47611;54.932;73.338;2022-10-14T05:01:54;8.82;;;3.53;;
60993;SDS011;47611;54.932;73.338;2022-10-14T05:04:28;7.38;;;2.97;;
60993;SDS011;47611;54.932;73.338;2022-10-14T05:06:55;7.30;;;2.60;;
60993;SDS011;47611;54.932;73.338;2022-10-14T05:09:22;13.40;;;2.60;;
60993;SDS011;47611;54.932;73.338;2022-10-14T05:11:50;18.48;;;3.00;;
60993;SDS011;47611;54.932;73.338;2022-10-14T05:14:21;11.30;;;3.60;;
60993;SDS011;47611;54.932;73.338;2022-10-14T05:16:54;8.45;;;2.53;;
60993;SDS011;47611;54.932;73.338;2022-10-14T05:19:31;11.15;;;2.80;;
60993;SDS011;47611;54.932;73.338;2022-10-14T05:21:58;12.10;;;3.40;;
60993;SDS011;47611;54.932;73.338;2022-10-14T05:24:31;7.35;;;2.67;;
60993;SDS011;47611;54.932;73.338;2022-10-14T05:26:57;8.48;;;2.40;;
60993;SDS011;47611;54.932;73.338;2022-10-14T05:29:26;34.45;;;3.13;;
60993;SDS011;47611;54.932;73.338;2022-10-14T05:31:53;28.30;;;3.58;;
60993;SDS011;47611;54.932;73.338;2022-10-14T05:34:39;22.38;;;2.83;;
60993;SDS011;47611;54.932;73.338;2022-10-14T05:37:09;11.52;;;2.70;;
60993;SDS011;47611;54.932;73.338;2022-10-14T05:39:42;8.75;;;2.58;;
60993;SDS011;47611;54.932;73.338;2022-10-14T05:42:10;11.00;;;2.30;;
60993;SDS011;47611;54.932;73.338;2022-10-14T05:44:36;9.90;;;2.85;;
60993;SDS011;47611;54.932;73.338;2022-10-14T05:47:03;8.32;;;2.38;;
60993;SDS011;47611;54.932;73.338;2022-10-14T05:49:30;26.80;;;2.65;;
60993;SDS011;47611;54.932;73.338;2022-10-14T05:51:58;17.70;;;3.47;;
60993;SDS011;47611;54.932;73.338;2022-10-14T05:54:24;10.57;;;2.28;;
60993;SDS011;47611;54.932;73.338;2022-10-14T05:56:53;22.35;;;2.60;;
60993;SDS011;47611;54.932;73.338;2022-10-14T05:59:21;14.98;;;2.10;;
60993;SDS011;47611;54.932;73.338;2022-10-14T06:01:47;14.60;;;1.98;;
60993;SDS011;47611;54.932;73.338;2022-10-14T06:04:16;26.55;;;2.58;;
60993;SDS011;47611;54.932;73.338;2022-10-14T06:06:44;12.73;;;2.00;;
60993;SDS011;47611;54.932;73.338;2022-10-14T06:09:10;7.43;;;1.85;;
60993;SDS011;47611;54.932;73.338;2022-10-14T06:11:37;10.30;;;2.20;;
60993;SDS011;47611;54.932;73.338;2022-10-14T06:14:04;11.23;;;2.30;;
60993;SDS011;47611;54.932;73.338;2022-10-14T06:16:31;9.20;;;1.77;;
60993;SDS011;47611;54.932;73.338;2022-10-14T06:19:01;3.92;;;1.77;;
60993;SDS011;47611;54.932;73.338;2022-10-14T06:21:29;12.23;;;2.67;;
60993;SDS011;47611;54.932;73.338;2022-10-14T06:23:55;17.52;;;2.60;;
60993;SDS011;47611;54.932;73.338;2022-10-14T06:26:21;11.93;;;2.00;;
60993;SDS011;47611;54.932;73.338;2022-10-14T06:28:47;6.88;;;1.85;;
60993;SDS011;47611;54.932;73.338;2022-10-14T06:31:18;2.58;;;1.50;;
60993;SDS011;47611;54.932;73.338;2022-10-14T06:33:45;8.35;;;1.60;;
60993;SDS011;47611;54.932;73.338;2022-10-14T06:36:11;6.75;;;2.33;;
60993;SDS011;47611;54.932;73.338;2022-10-14T06:38:41;10.38;;;1.80;;
60993;SDS011;47611;54.932;73.338;2022-10-14T06:41:07;4.63;;;2.10;;
60993;SDS011;47611;54.932;73.338;2022-10-14T06:43:36;7.82;;;1.75;;
60993;SDS011;47611;54.932;73.338;2022-10-14T06:46:02;6.55;;;1.60;;
60993;SDS011;47611;54.932;73.338;2022-10-14T06:48:30;3.40;;;1.35;;
60993;SDS011;47611;54.932;73.338;2022-10-14T06:50:59;4.70;;;1.45;;
60993;SDS011;47611;54.932;73.338;2022-10-14T06:53:27;7.63;;;2.03;;
60993;SDS011;47611;54.932;73.338;2022-10-14T06:56:00;6.03;;;1.60;;
60993;SDS011;47611;54.932;73.338;2022-10-14T06:58:34;7.28;;;1.80;;
60993;SDS011;47611;54.932;73.338;2022-10-14T07:01:06;5.35;;;1.98;;
60993;SDS011;47611;54.932;73.338;2022-10-14T07:03:33;5.97;;;1.88;;
60993;SDS011;47611;54.932;73.338;2022-10-14T07:06:04;14.40;;;3.17;;
60993;SDS011;47611;54.932;73.338;2022-10-14T07:08:31;6.18;;;1.83;;
60993;SDS011;47611;54.932;73.338;2022-10-14T07:10:58;6.78;;;2.10;;
60993;SDS011;47611;54.932;73.338;2022-10-14T07:13:24;12.20;;;2.97;;
60993;SDS011;47611;54.932;73.338;2022-10-14T07:15:50;11.73;;;3.50;;
60993;SDS011;47611;54.932;73.338;2022-10-14T07:18:17;24.77;;;3.80;;
60993;SDS011;47611;54.932;73.338;2022-10-14T07:20:44;14.95;;;4.00;;
60993;SDS011;47611;54.932;73.338;2022-10-14T07:23:10;12.60;;;4.18;;
60993;SDS011;47611;54.932;73.338;2022-10-14T07:25:37;30.38;;;4.70;;
60993;SDS011;47611;54.932;73.338;2022-10-14T07:28:03;11.57;;;3.60;;
60993;SDS011;47611;54.932;73.338;2022-10-14T07:30:30;10.93;;;3.47;;
60993;SDS011;47611;54.932;73.338;2022-10-14T07:32:59;12.45;;;3.38;;
60993;SDS011;47611;54.932;73.338;2022-10-14T07:35:36;18.05;;;4.20;;
60993;SDS011;47611;54.932;73.338;2022-10-14T07:38:03;10.38;;;3.35;;
60993;SDS011;47611;54.932;73.338;2022-10-14T07:40:29;11.52;;;4.72;;
60993;SDS011;47611;54.932;73.338;2022-10-14T07:42:55;12.10;;;3.45;;
60993;SDS011;47611;54.932;73.338;2022-10-14T07:45:26;12.45;;;4.28;;
60993;SDS011;47611;54.932;73.338;2022-10-14T07:47:52;12.70;;;5.10;;
60993;SDS011;47611;54.932;73.338;2022-10-14T07:50:18;15.10;;;4.00;;
60993;SDS011;47611;54.932;73.338;2022-10-14T07:52:45;51.15;;;6.00;;
60993;SDS011;47611;54.932;73.338;2022-10-14T07:55:11;13.27;;;6.25;;
60993;SDS011;47611;54.932;73.338;2022-10-14T07:57:37;32.50;;;7.13;;
60993;SDS011;47611;54.932;73.338;2022-10-14T08:00:04;18.58;;;6.70;;
60993;SDS011;47611;54.932;73.338;2022-10-14T08:02:37;22.63;;;6.40;;
60993;SDS011;47611;54.932;73.338;2022-10-14T08:05:03;15.48;;;7.72;;
60993;SDS011;47611;54.932;73.338;2022-10-14T08:07:30;13.20;;;6.60;;
60993;SDS011;47611;54.932;73.338;2022-10-14T08:09:57;14.70;;;6.90;;
60993;SDS011;47611;54.932;73.338;2022-10-14T08:12:24;18.60;;;8.68;;
60993;SDS011;47611;54.932;73.338;2022-10-14T08:14:51;28.30;;;7.45;;
60993;SDS011;47611;54.932;73.338;2022-10-14T08:17:20;11.20;;;5.28;;
60993;SDS011;47611;54.932;73.338;2022-10-14T08:19:48;12.68;;;3.83;;
60993;SDS011;47611;54.932;73.338;2022-10-14T08:22:17;14.95;;;4.13;;
60993;SDS011;47611;54.932;73.338;2022-10-14T08:24:51;14.95;;;3.83;;
60993;SDS011;47611;54.932;73.338;2022-10-14T08:27:17;5.82;;;2.70;;
60993;SDS011;47611;54.932;73.338;2022-10-14T08:29:43;9.20;;;3.05;;
60993;SDS011;47611;54.932;73.338;2022-10-14T08:32:10;8.50;;;2.90;;
60993;SDS011;47611;54.932;73.338;2022-10-14T08:34:36;8.55;;;3.00;;
60993;SDS011;47611;54.932;73.338;2022-10-14T08:37:02;10.25;;;2.80;;
60993;SDS011;47611;54.932;73.338;2022-10-14T08:39:28;8.55;;;2.53;;
60993;SDS011;47611;54.932;73.338;2022-10-14T08:47:09;21.45;;;3.75;;
60993;SDS011;47611;54.932;73.338;2022-10-14T08:49:48;9.20;;;2.45;;
60993;SDS011;47611;54.932;73.338;2022-10-14T08:52:30;9.73;;;3.00;;
60993;SDS011;47611;54.932;73.338;2022-10-14T09:00:44;13.52;;;6.65;;
60993;SDS011;47611;54.932;73.338;2022-10-14T09:03:19;11.25;;;3.58;;
60993;SDS011;47611;54.932;73.338;2022-10-14T09:05:54;11.93;;;5.43;;
60993;SDS011;47611;54.932;73.338;2022-10-14T09:08:32;6.85;;;3.70;;
60993;SDS011;47611;54.932;73.338;2022-10-14T09:11:03;9.98;;;2.60;;
60993;SDS011;47611;54.932;73.338;2022-10-14T09:13:34;10.48;;;2.42;;
60993;SDS011;47611;54.932;73.338;2022-10-14T09:16:12;5.38;;;2.50;;
60993;SDS011;47611;54.932;73.338;2022-10-14T09:18:57;8.82;;;3.75;;
60993;SDS011;47611;54.932;73.338;2022-10-14T09:21:32;8.50;;;2.78;;
60993;SDS011;47611;54.932;73.338;2022-10-14T09:24:09;11.63;;;3.30;;
60993;SDS011;47611;54.932;73.338;2022-10-14T09:26:41;7.38;;;2.60;;
60993;SDS011;47611;54.932;73.338;2022-10-14T09:29:20;5.25;;;2.53;;
60993;SDS011;47611;54.932;73.338;2022-10-14T09:31:56;10.57;;;3.03;;
60993;SDS011;47611;54.932;73.338;2022-10-14T09:34:36;7.00;;;3.00;;
60993;SDS011;47611;54.932;73.338;2022-10-14T09:37:20;9.63;;;3.08;;
60993;SDS011;47611;54.932;73.338;2022-10-14T09:39:58;6.55;;;2.50;;
60993;SDS011;47611;54.932;73.338;2022-10-14T09:42:47;10.90;;;3.60;;
60993;SDS011;47611;54.932;73.338;2022-10-14T09:47:55;8.10;;;2.45;;
60993;SDS011;47611;54.932;73.338;2022-10-14T09:50:23;8.05;;;2.67;;
60993;SDS011;47611;54.932;73.338;2022-10-14T09:52:54;6.60;;;2.47;;
60993;SDS011;47611;54.932;73.338;2022-10-14T09:55:26;6.88;;;2.30;;
60993;SDS011;47611;54.932;73.338;2022-10-14T09:57:58;10.10;;;3.10;;
60993;SDS011;47611;54.932;73.338;2022-10-14T10:00:34;10.75;;;3.42;;
60993;SDS011;47611;54.932;73.338;2022-10-14T10:03:03;7.13;;;3.33;;
60993;SDS011;47611;54.932;73.338;2022-10-14T10:05:30;9.55;;;3.22;;
60993;SDS011;47611;54.932;73.338;2022-10-14T10:10:39;14.60;;;3.50;;
60993;SDS011;47611;54.932;73.338;2022-10-14T10:13:21;8.10;;;3.17;;
60993;SDS011;47611;54.932;73.338;2022-10-14T10:15:57;6.05;;;2.97;;
60993;SDS011;47611;54.932;73.338;2022-10-14T10:18:29;19.55;;;3.97;;
60993;SDS011;47611;54.932;73.338;2022-10-14T10:20:59;25.17;;;10.75;;
60993;SDS011;47611;54.932;73.338;2022-10-14T10:23:32;5.40;;;2.90;;
60993;SDS011;47611;54.932;73.338;2022-10-14T10:26:21;7.97;;;3.20;;
60993;SDS011;47611;54.932;73.338;2022-10-14T10:28:55;12.00;;;2.40;;
60993;SDS011;47611;54.932;73.338;2022-10-14T10:34:03;7.18;;;2.15;;
60993;SDS011;47611;54.932;73.338;2022-10-14T10:36:40;7.25;;;2.40;;
60993;SDS011;47611;54.932;73.338;2022-10-14T10:39:16;6.53;;;2.95;;
60993;SDS011;47611;54.932;73.338;2022-10-14T10:47:32;4.00;;;2.40;;
60993;SDS011;47611;54.932;73.338;2022-10-14T10:53:14;5.57;;;3.42;;
60993;SDS011;47611;54.932;73.338;2022-10-14T10:58:41;9.75;;;3.25;;
60993;SDS011;47611;54.932;73.338;2022-10-14T11:17:13;8.75;;;4.20;;
60993;SDS011;47611;54.932;73.338;2022-10-14T11:19:43;30.15;;;18.13;;
60993;SDS011;47611;54.932;73.338;2022-10-14T11:25:19;32.63;;;14.63;;
60993;SDS011;47611;54.932;73.338;2022-10-14T11:28:03;28.35;;;18.60;;
60993;SDS011;47611;54.932;73.338;2022-10-14T11:31:05;8.90;;;5.55;;
60993;SDS011;47611;54.932;73.338;2022-10-14T11:33:42;4.93;;;2.58;;
60993;SDS011;47611;54.932;73.338;2022-10-14T11:36:38;8.13;;;3.10;;
60993;SDS011;47611;54.932;73.338;2022-10-14T11:39:37;11.63;;;3.42;;
60993;SDS011;47611;54.932;73.338;2022-10-14T11:48:46;14.52;;;3.47;;
60993;SDS011;47611;54.932;73.338;2022-10-14T11:50:48;10.60;;;3.35;;
60993;SDS011;47611;54.932;73.338;2022-10-14T11:53:23;6.57;;;3.60;;
60993;SDS011;47611;54.932;73.338;2022-10-14T11:56:04;11.05;;;4.30;;
60993;SDS011;47611;54.932;73.338;2022-10-14T12:01:11;12.48;;;5.47;;
60993;SDS011;47611;54.932;73.338;2022-10-14T12:03:44;24.63;;;7.55;;
60993;SDS011;47611;54.932;73.338;2022-10-14T12:11:58;18.88;;;8.60;;
60993;SDS011;47611;54.932;73.338;2022-10-14T12:16:58;11.50;;;6.10;;
60993;SDS011;47611;54.932;73.338;2022-10-14T12:19:29;12.45;;;5.30;;
60993;SDS011;47611;54.932;73.338;2022-10-14T12:22:17;8.30;;;4.80;;
60993;SDS011;47611;54.932;73.338;2022-10-14T12:24:54;13.68;;;4.72;;
60993;SDS011;47611;54.932;73.338;2022-10-14T12:27:23;10.63;;;4.60;;
60993;SDS011;47611;54.932;73.338;2022-10-14T12:29:51;13.32;;;4.63;;
60993;SDS011;47611;54.932;73.338;2022-10-14T12:32:21;14.82;;;6.50;;
60993;SDS011;47611;54.932;73.338;2022-10-14T12:34:52;15.50;;;5.70;;
60993;SDS011;47611;54.932;73.338;2022-10-14T12:40:34;13.20;;;6.22;;
60993;SDS011;47611;54.932;73.338;2022-10-14T12:48:25;12.65;;;6.25;;
60993;SDS011;47611;54.932;73.338;2022-10-14T12:51:08;16.23;;;6.32;;
60993;SDS011;47611;54.932;73.338;2022-10-14T12:54:19;12.52;;;5.30;;
60993;SDS011;47611;54.932;73.338;2022-10-14T12:59:43;11.43;;;5.70;;
60993;SDS011;47611;54.932;73.338;2022-10-14T13:02:34;13.50;;;8.20;;
60993;SDS011;47611;54.932;73.338;2022-10-14T13:05:07;13.73;;;5.90;;
60993;SDS011;47611;54.932;73.338;2022-10-14T13:07:46;10.18;;;5.05;;
60993;SDS011;47611;54.932;73.338;2022-10-14T13:16:07;12.55;;;6.90;;
60993;SDS011;47611;54.932;73.338;2022-10-14T13:18:46;14.18;;;4.95;;
60993;SDS011;47611;54.932;73.338;2022-10-14T13:24:00;9.48;;;5.15;;
60993;SDS011;47611;54.932;73.338;2022-10-14T13:26:44;13.52;;;7.35;;
60993;SDS011;47611;54.932;73.338;2022-10-14T13:35:03;16.10;;;6.22;;
60993;SDS011;47611;54.932;73.338;2022-10-14T13:37:35;17.80;;;7.38;;
60993;SDS011;47611;54.932;73.338;2022-10-14T13:43:06;11.38;;;5.05;;
60993;SDS011;47611;54.932;73.338;2022-10-14T13:45:42;8.27;;;4.90;;
60993;SDS011;47611;54.932;73.338;2022-10-14T13:48:20;13.60;;;5.68;;
60993;SDS011;47611;54.932;73.338;2022-10-14T13:51:20;15.18;;;6.10;;
60993;SDS011;47611;54.932;73.338;2022-10-14T13:53:57;11.60;;;5.65;;
60993;SDS011;47611;54.932;73.338;2022-10-14T13:56:33;11.38;;;6.50;;
60993;SDS011;47611;54.932;73.338;2022-10-14T13:59:01;13.10;;;6.60;;
60993;SDS011;47611;54.932;73.338;2022-10-14T14:01:34;12.32;;;6.57;;
60993;SDS011;47611;54.932;73.338;2022-10-14T14:04:03;12.88;;;6.55;;
60993;SDS011;47611;54.932;73.338;2022-10-14T14:06:30;10.77;;;5.72;;
60993;SDS011;47611;54.932;73.338;2022-10-14T14:08:58;10.32;;;6.03;;
60993;SDS011;47611;54.932;73.338;2022-10-14T14:11:27;15.10;;;7.20;;
60993;SDS011;47611;54.932;73.338;2022-10-14T14:14:03;14.13;;;6.53;;
60993;SDS011;47611;54.932;73.338;2022-10-14T14:16:34;15.10;;;7.88;;
60993;SDS011;47611;54.932;73.338;2022-10-14T14:22:14;10.38;;;6.00;;
60993;SDS011;47611;54.932;73.338;2022-10-14T14:25:11;9.85;;;4.97;;
60993;SDS011;47611;54.932;73.338;2022-10-14T14:27:54;9.90;;;5.28;;
60993;SDS011;47611;54.932;73.338;2022-10-14T14:30:24;5.53;;;2.90;;
60993;SDS011;47611;54.932;73.338;2022-10-14T14:33:11;8.77;;;4.28;;
60993;SDS011;47611;54.932;73.338;2022-10-14T14:35:52;10.48;;;5.63;;
60993;SDS011;47611;54.932;73.338;2022-10-14T14:38:35;8.20;;;3.80;;
60993;SDS011;47611;54.932;73.338;2022-10-14T14:41:23;8.88;;;4.95;;
60993;SDS011;47611;54.932;73.338;2022-10-14T14:43:52;5.35;;;3.40;;
60993;SDS011;47611;54.932;73.338;2022-10-14T14:46:38;6.25;;;2.70;;
60993;SDS011;47611;54.932;73.338;2022-10-14T14:49:06;5.47;;;3.28;;
60993;SDS011;47611;54.932;73.338;2022-10-14T14:51:34;4.05;;;2.42;;
60993;SDS011;47611;54.932;73.338;2022-10-14T14:54:03;8.35;;;3.15;;
60993;SDS011;47611;54.932;73.338;2022-10-14T14:56:37;5.97;;;2.60;;
60993;SDS011;47611;54.932;73.338;2022-10-14T14:59:26;4.85;;;2.72;;
60993;SDS011;47611;54.932;73.338;2022-10-14T15:01:50;8.27;;;4.15;;
60993;SDS011;47611;54.932;73.338;2022-10-14T15:04:17;9.57;;;6.82;;
60993;SDS011;47611;54.932;73.338;2022-10-14T15:06:49;6.35;;;2.92;;
60993;SDS011;47611;54.932;73.338;2022-10-14T15:09:21;5.07;;;2.92;;
60993;SDS011;47611;54.932;73.338;2022-10-14T15:11:56;6.15;;;3.00;;
60993;SDS011;47611;54.932;73.338;2022-10-14T15:14:32;4.95;;;3.13;;
60993;SDS011;47611;54.932;73.338;2022-10-14T15:17:42;11.15;;;6.18;;
60993;SDS011;47611;54.932;73.338;2022-10-14T15:22:36;17.00;;;6.18;;
60993;SDS011;47611;54.932;73.338;2022-10-14T15:25:37;11.23;;;6.60;;
60993;SDS011;47611;54.932;73.338;2022-10-14T15:27:57;5.50;;;4.10;;
60993;SDS011;47611;54.932;73.338;2022-10-14T15:33:21;5.40;;;2.88;;
60993;SDS011;47611;54.932;73.338;2022-10-14T15:35:59;6.55;;;2.28;;
60993;SDS011;47611;54.932;73.338;2022-10-14T15:38:27;7.68;;;3.50;;
60993;SDS011;47611;54.932;73.338;2022-10-14T15:40:54;4.97;;;3.33;;
60993;SDS011;47611;54.932;73.338;2022-10-14T15:43:22;8.45;;;3.45;;
60993;SDS011;47611;54.932;73.338;2022-10-14T15:46:03;5.65;;;2.90;;
60993;SDS011;47611;54.932;73.338;2022-10-14T15:48:49;7.07;;;3.50;;
60993;SDS011;47611;54.932;73.338;2022-10-14T15:51:20;8.85;;;4.43;;
60993;SDS011;47611;54.932;73.338;2022-10-14T15:53:48;14.63;;;7.50;;
60993;SDS011;47611;54.932;73.338;2022-10-14T15:56:14;9.38;;;5.32;;
60993;SDS011;47611;54.932;73.338;2022-10-14T15:58:41;11.30;;;5.72;;
60993;SDS011;47611;54.932;73.338;2022-10-14T16:01:19;18.90;;;8.80;;
60993;SDS011;47611;54.932;73.338;2022-10-14T16:03:47;8.43;;;5.28;;
60993;SDS011;47611;54.932;73.338;2022-10-14T16:06:14;8.43;;;4.43;;
60993;SDS011;47611;54.932;73.338;2022-10-14T16:08:47;14.38;;;6.70;;
60993;SDS011;47611;54.932;73.338;2022-10-14T16:11:22;15.65;;;8.23;;
60993;SDS011;47611;54.932;73.338;2022-10-14T16:13:51;9.85;;;4.38;;
60993;SDS011;47611;54.932;73.338;2022-10-14T16:16:20;7.32;;;3.58;;
60993;SDS011;47611;54.932;73.338;2022-10-14T16:19:01;9.23;;;5.15;;
60993;SDS011;47611;54.932;73.338;2022-10-14T16:21:28;6.22;;;3.95;;
60993;SDS011;47611;54.932;73.338;2022-10-14T16:23:54;6.30;;;3.45;;
60993;SDS011;47611;54.932;73.338;2022-10-14T16:26:20;6.15;;;3.65;;
60993;SDS011;47611;54.932;73.338;2022-10-14T16:28:47;6.97;;;3.80;;
60993;SDS011;47611;54.932;73.338;2022-10-14T16:31:20;5.65;;;3.65;;
60993;SDS011;47611;54.932;73.338;2022-10-14T16:33:56;5.70;;;3.35;;
60993;SDS011;47611;54.932;73.338;2022-10-14T16:36:23;3.90;;;2.63;;
60993;SDS011;47611;54.932;73.338;2022-10-14T16:38:50;7.22;;;3.70;;
60993;SDS011;47611;54.932;73.338;2022-10-14T16:41:23;7.18;;;3.20;;
60993;SDS011;47611;54.932;73.338;2022-10-14T16:43:49;7.18;;;3.53;;
60993;SDS011;47611;54.932;73.338;2022-10-14T16:46:16;7.15;;;3.78;;
60993;SDS011;47611;54.932;73.338;2022-10-14T16:48:44;6.43;;;3.08;;
60993;SDS011;47611;54.932;73.338;2022-10-14T16:51:10;7.90;;;3.67;;
60993;SDS011;47611;54.932;73.338;2022-10-14T16:53:36;6.93;;;3.97;;
60993;SDS011;47611;54.932;73.338;2022-10-14T16:56:18;7.28;;;3.20;;
60993;SDS011;47611;54.932;73.338;2022-10-14T16:59:04;7.55;;;3.45;;
60993;SDS011;47611;54.932;73.338;2022-10-14T17:01:32;6.35;;;3.38;;
60993;SDS011;47611;54.932;73.338;2022-10-14T17:04:00;5.93;;;4.00;;
60993;SDS011;47611;54.932;73.338;2022-10-14T17:06:27;5.82;;;3.58;;
60993;SDS011;47611;54.932;73.338;2022-10-14T17:08:53;9.63;;;3.92;;
60993;SDS011;47611;54.932;73.338;2022-10-14T17:11:24;6.55;;;3.50;;